Latest Coastal Weather Observations for Low Rocky Point

IDT60701

Issued at 1:11 pm EST Tuesday 4 August 2015 (issued every 10 minutes, with the page automatically refreshed every 10 minutes)

About coastal observations | Map of coastal stations | Coastal observations for TAS | Marine services | Other Formats
Station Details ID: 097080 Name: LOW ROCKY POINT Lat: -42.98 Lon: 145.50 Height: 34.0 m
Data from the previous 72 hours. | See also: Recent months at Low Rocky Point
Date/Time
EST
Temp

°C
Wind Pressure Rain
since 9am
mm
Weather Cloud Vis
km
Sea
Height
m
Swell
Dir
 
Speed
knots
Gust
knots
hPa Trend Height
m
Period
s
Dir
04/01:10pm 9.9 NW 33 43 1005.5 - 1.2 - - - - - - -
04/01:00pm 9.7 NW 33 42 1005.8 - 1.2 - - - - - - -
04/12:39pm 9.4 NW 34 45 1006.1 - 1.2 - - - - - - -
04/12:30pm 9.8 NW 35 43 1006.5 - 1.2 - - - - - - -
04/12:00pm 9.3 NW 34 44 1007.3 - 1.2 Recent precip. - - - - - -
04/11:37am 9.5 NW 30 40 1007.7 - 1.2 - - - - - - -
04/11:30am 9.6 NW 30 39 1008.1 - 1.2 - - - - - - -
04/11:00am 9.6 NW 31 41 1008.7 - 1.0 Recent precip. - - - - - -
04/10:30am 9.1 NW 31 41 1009.2 - 1.0 - - - - - - -
04/10:13am 8.9 NW 31 41 1009.7 - 1.0 - - - - - - -
04/10:00am 8.7 NW 36 44 1009.5 - 0.4 Rain - - - - - -
04/09:30am 9.0 NW 32 39 1010.2 - 0.0 - - - - - - -
04/09:00am 8.8 NW 33 45 1010.7 - 2.6 - - - - - - -
04/08:30am 8.7 NW 31 38 1011.4 - 2.6 - - - - - - -
04/08:02am 8.8 NW 28 38 1011.6 - 2.6 - - - - - - -
04/08:00am 9.0 NW 27 35 1011.6 - 2.6 - - - - - - -
04/07:30am 8.0 NW 30 37 1012.0 - 2.6 - - - - - - -
04/07:00am 8.5 WNW 29 36 1012.3 - 2.6 - - - - - - -
04/06:30am 8.3 NW 27 34 1012.5 - 2.6 - - - - - - -
04/06:00am 7.3 NW 28 34 1013.0 - 2.6 Recent precip. - - - - - -
04/05:30am 6.9 NW 24 30 1013.2 - 2.4 - - - - - - -
04/05:13am 7.7 WNW 26 37 1013.4 - 2.2 - - - - - - -
04/05:00am 7.8 NW 25 31 1013.4 - 2.2 - - - - - - -
04/04:30am 7.7 NW 22 30 1013.8 - 2.2 - - - - - - -
04/04:00am 7.5 NW 25 31 1014.2 - 2.2 - - - - - - -
04/03:41am 7.6 NW 24 36 1014.2 - 2.2 - - - - - - -
04/03:30am 7.9 NW 23 29 1014.3 - 2.2 - - - - - - -
04/03:00am 7.5 NW 23 28 1014.8 - 2.2 - - - - - - -
04/02:36am 7.4 WNW 26 36 1015.2 - 2.2 - - - - - - -
04/02:30am 6.9 WNW 26 36 1015.1 - 2.2 - - - - - - -
04/02:27am 7.1 WNW 24 35 1015.1 - 2.2 - - - - - - -
04/02:07am 7.3 NW 21 32 1015.6 - 2.2 - - - - - - -
04/02:00am 7.1 NW 20 26 1015.7 - 2.2 - - - - - - -
04/01:30am 7.1 WNW 24 31 1016.0 - 2.2 - - - - - - -
04/01:01am 6.5 WNW 26 36 1016.4 - 2.2 - - - - - - -
04/01:00am 6.3 WNW 27 36 1016.5 - 2.2 Recent precip. - - - - - -
04/12:45am 6.3 WNW 27 37 1016.3 - 2.2 - - - - - - -
04/12:39am 6.6 WNW 20 33 1016.3 - 2.2 - - - - - - -
04/12:30am 6.0 WNW 20 27 1016.7 - 2.2 - - - - - - -
04/12:00am 6.7 W 22 32 1016.8 - 2.0 - - - - - - -
 
Date/Time
EST
Temp

°C
Wind Pressure Rain
since 9am
mm
Weather Cloud Vis
km
Sea
Height
m
Swell
Dir
 
Speed
knots
Gust
knots
hPa Trend Height
m
Period
s
Dir
03/11:30pm 6.5 WNW 24 30 1016.8 - 2.0 - - - - - - -
03/11:16pm 6.5 W 21 27 1016.9 - 2.0 - - - - - - -
03/11:00pm 6.1 NW 15 25 1017.2 - 2.0 Recent precip. - - - - - -
03/10:44pm 6.9 W 15 29 1017.3 - 1.2 - - - - - - -
03/10:30pm 6.3 W 19 25 1017.4 - 1.2 - - - - - - -
03/10:00pm 6.7 W 19 23 1017.4 - 1.2 - - - - - - -
03/09:30pm 5.6 WNW 14 24 1017.3 - 1.2 - - - - - - -
03/09:00pm 6.4 WSW 13 17 1017.4 - 1.2 - - - - - - -
03/08:30pm 6.5 WSW 14 18 1017.1 - 1.2 - - - - - - -
03/08:00pm 6.4 SW 15 20 1017.1 - 1.2 - - - - - - -
03/07:30pm 7.1 SW 14 23 1016.7 - 1.2 - - - - - - -
03/07:00pm 5.9 SSW 9 13 1016.5 - 1.2 - - - - - - -
03/06:30pm 6.6 SSW 13 19 1016.2 - 1.2 - - - - - - -
03/06:00pm 6.7 SW 14 19 1015.8 - 1.2 - - - - - - -
03/05:30pm 6.8 SW 16 23 1015.3 - 1.2 - - - - - - -
03/05:00pm 6.7 SW 16 21 1014.7 - 1.2 - - - - - - -
03/04:30pm 6.3 SW 19 30 1014.4 - 1.2 - - - - - - -
03/04:16pm 7.8 SW 17 27 1013.6 - 1.2 - - - - - - -
03/04:00pm 7.1 SSW 19 27 1013.3 - 1.2 - - - - - - -
03/03:56pm 6.6 S 20 31 1013.4 - 1.2 - - - - - - -
03/03:42pm 8.1 SW 21 35 1013.0 - 1.2 - - - - - - -
03/03:30pm 8.3 SW 21 30 1012.8 - 1.2 - - - - - - -
03/03:00pm 8.4 SSW 21 32 1012.2 - 1.2 - - - - - - -
03/02:31pm 7.7 SW 19 29 1011.5 - 1.2 - - - - - - -
03/02:30pm 7.9 SW 20 29 1011.5 - 1.2 - - - - - - -
03/02:00pm 8.0 SSW 23 33 1010.7 - 1.2 - - - - - - -
03/01:31pm 6.6 SSW 21 31 1010.5 - 1.2 - - - - - - -
03/01:30pm 6.5 SSW 22 31 1010.5 - 1.2 - - - - - - -
03/01:00pm 6.5 SSW 24 37 1009.5 - 1.2 Recent precip. - - - - - -
03/12:30pm 4.9 SSW 30 42 1009.0 - 1.2 - - - - - - -
03/12:02pm 4.5 SW 24 35 1009.1 - 0.8 - - - - - - -
03/12:00pm 5.3 SW 23 34 1008.9 - 0.8 Recent precip. - - - - - -
03/11:30am 4.4 SSW 27 42 1008.7 - 0.2 - - - - - - -
03/11:00am 6.0 SW 30 46 1007.4 - 0.2 Recent precip. - - - - - -
03/10:30am 6.5 SW 32 44 1006.3 - 0.0 - - - - - - -
03/10:00am 6.6 SW 35 48 1004.9 - 0.0 - - - - - - -
03/09:37am 5.8 SW 29 49 1004.3 - 0.0 - - - - - - -
03/09:30am 6.0 SW 25 36 1004.1 - 0.0 - - - - - - -
03/09:16am 5.3 SW 24 35 1004.1 - 0.0 - - - - - - -
03/09:11am 4.7 SW 27 42 1004.1 - 0.0 - - - - - - -
03/09:00am 3.6 SW 34 58 1004.2 - 14.0 Recent precip. - - - - - -
03/08:55am 4.0 SW 29 58 1003.7 - 14.0 - - - - - - -
03/08:54am 4.5 SW 27 53 1003.7 - 14.0 - - - - - - -
03/08:30am 5.3 WSW 26 39 1002.8 - 13.8 - - - - - - -
03/08:00am 3.7 WSW 21 34 1002.7 - 13.6 Rain - - - - - -
03/07:59am 3.3 WSW 21 31 1002.7 - 13.6 - - - - - - -
03/07:49am 3.4 SW 26 39 1002.5 - 12.8 - - - - - - -
03/07:37am 4.0 WSW 31 42 1002.5 - 12.8 - - - - - - -
03/07:30am 4.8 W 30 39 1001.9 - 12.8 - - - - - - -
03/07:24am 4.7 WSW 22 38 1001.7 - 12.8 - - - - - - -
03/07:00am 2.2 SW 27 41 1001.8 - 12.6 Rain - - - - - -
03/06:30am 4.7 WSW 31 44 1000.8 - 12.4 - - - - - - -
03/06:00am 5.1 WSW 28 39 999.7 - 12.2 - - - - - - -
03/05:44am 4.9 WSW 23 37 999.3 - 12.2 - - - - - - -
03/05:30am 4.4 WSW 23 32 998.9 - 12.2 - - - - - - -
03/05:14am 4.0 WSW 19 29 998.8 - 12.2 - - - - - - -
03/05:00am 3.7 W 22 29 999.0 - 12.2 Rain - - - - - -
03/04:47am 3.5 SW 23 33 998.6 - 12.0 - - - - - - -
03/04:36am 3.8 WSW 23 32 998.4 - 11.8 - - - - - - -
03/04:30am 4.6 WSW 25 35 998.3 - 11.8 - - - - - - -
03/04:00am 4.2 WSW 22 33 997.7 - 11.6 Rain - - - - - -
03/03:31am 5.0 W 27 37 997.0 - 11.4 - - - - - - -
03/03:30am 5.2 W 27 36 997.0 - 11.4 - - - - - - -
03/03:00am 4.8 WSW 26 37 996.9 - 11.4 - - - - - - -
03/02:30am 5.5 WSW 28 38 996.4 - 11.4 - - - - - - -
03/02:02am 4.7 WSW 27 38 996.4 - 11.4 - - - - - - -
03/02:00am 4.8 WSW 26 35 996.6 - 11.4 - - - - - - -
03/01:42am 5.2 W 33 45 996.1 - 11.4 - - - - - - -
03/01:39am 6.1 W 33 44 995.8 - 11.4 - - - - - - -
03/01:33am 5.8 W 28 39 995.8 - 11.4 - - - - - - -
03/01:30am 6.3 W 27 33 995.6 - 11.4 - - - - - - -
03/01:02am 5.7 WNW 22 34 995.3 - 11.4 - - - - - - -
03/01:00am 5.5 WNW 21 27 995.4 - 11.4 Recent precip. - - - - - -
03/12:53am 5.0 WNW 20 24 995.4 - 11.4 - - - - - - -
03/12:30am 4.4 W 20 25 995.7 - 11.4 - - - - - - -
03/12:18am 4.1 WSW 27 37 995.6 - 11.4 - - - - - - -
03/12:01am 5.7 W 32 45 995.5 - 11.4 - - - - - - -
03/12:00am 6.5 W 31 40 995.5 - 11.2 - - - - - - -
 
Date/Time
EST
Temp

°C
Wind Pressure Rain
since 9am
mm
Weather Cloud Vis
km
Sea
Height
m
Swell
Dir
 
Speed
knots
Gust
knots
hPa Trend Height
m
Period
s
Dir
02/11:56pm 6.3 W 30 40 995.2 - 11.2 - - - - - - -
02/11:30pm 5.5 W 25 32 995.2 - 11.2 - - - - - - -
02/11:00pm 5.3 W 28 40 995.1 - 11.2 Recent precip. - - - - - -
02/10:35pm 5.6 W 27 38 994.4 - 11.2 - - - - - - -
02/10:30pm 5.3 W 25 32 994.3 - 11.2 - - - - - - -
02/10:14pm 5.0 W 30 41 994.2 - 11.2 - - - - - - -
02/10:09pm 4.6 W 35 45 994.5 - 11.2 - - - - - - -
02/10:00pm 4.8 W 40 51 994.7 - 11.0 Recent precip. - - - - - -
02/09:35pm 5.6 WNW 35 45 994.1 - 10.8 - - - - - - -
02/09:30pm 5.6 WNW 37 45 993.8 - 10.8 - - - - - - -
02/09:13pm 6.0 WNW 31 44 993.7 - 10.6 - - - - - - -
02/09:00pm 5.1 WNW 28 35 994.3 - 10.6 Recent precip. - - - - - -
02/08:30pm 4.4 WNW 33 41 994.5 - 9.8 - - - - - - -
02/08:21pm 5.4 WNW 30 40 994.1 - 9.4 - - - - - - -
02/08:14pm 5.6 WNW 32 39 994.4 - 9.4 - - - - - - -
02/08:00pm 5.6 WNW 39 50 994.3 - 9.2 Rain - - - - - -
02/07:30pm 5.5 WNW 35 48 994.8 - 9.0 - - - - - - -
02/07:12pm 6.8 WNW 33 44 994.0 - 9.0 - - - - - - -
02/07:00pm 6.1 WNW 28 36 994.1 - 8.8 Rain - - - - - -
02/06:47pm 4.9 WNW 25 35 994.5 - 8.2 - - - - - - -
02/06:30pm 7.3 WNW 30 36 994.5 - 7.4 - - - - - - -
02/06:11pm 7.1 NW 32 42 994.5 - 7.4 - - - - - - -
02/06:00pm 7.3 NW 34 43 994.4 - 7.4 - - - - - - -
02/05:54pm 7.0 NW 30 41 994.5 - 7.4 - - - - - - -
02/05:30pm 7.1 WNW 31 39 995.0 - 7.4 - - - - - - -
02/05:00pm 6.9 WNW 33 40 995.2 - 7.4 Recent precip. - - - - - -
02/04:30pm 6.2 WNW 33 43 995.6 - 7.4 - - - - - - -
02/04:20pm 5.8 WNW 31 42 995.5 - 7.2 - - - - - - -
02/04:18pm 5.6 WNW 28 39 995.3 - 7.2 - - - - - - -
02/04:00pm 5.7 WNW 30 38 995.6 - 7.2 Recent precip. - - - - - -
02/03:57pm 5.1 WNW 31 39 995.4 - 7.2 - - - - - - -
02/03:47pm 4.9 WNW 31 52 995.8 - 7.0 - - - - - - -
02/03:46pm 5.0 WNW 30 52 995.6 - 7.0 - - - - - - -
02/03:45pm 6.4 WNW 29 52 995.1 - 6.8 - - - - - - -
02/03:43pm 6.8 WNW 26 37 995.7 - 6.8 - - - - - - -
02/03:30pm 7.8 WNW 29 35 995.4 - 6.6 - - - - - - -
02/03:00pm 8.6 WNW 28 35 995.7 - 6.6 - - - - - - -
02/02:30pm 7.7 WNW 26 31 996.0 - 6.6 - - - - - - -
02/02:00pm 7.4 W 23 32 996.3 - 6.6 Recent precip. - - - - - -
02/01:30pm 6.9 W 28 35 996.6 - 6.6 - - - - - - -
02/01:04pm 5.2 WNW 29 40 996.9 - 6.4 - - - - - - -
02/01:03pm 5.4 WNW 29 40 996.8 - 6.2 - - - - - - -
02/01:00pm 7.0 WNW 27 39 996.4 - 6.2 Recent precip. - - - - - -
02/12:30pm 7.0 W 25 30 996.0 - 6.2 - - - - - - -
02/12:00pm 5.7 WNW 33 41 996.6 - 6.0 Recent precip. - - - - - -
02/11:30am 5.4 W 39 50 997.0 - 6.0 - - - - - - -
02/11:00am 6.4 W 33 48 996.5 - 5.4 Rain - - - - - -
02/10:55am 7.4 W 28 41 995.9 - 5.0 - - - - - - -
02/10:53am 7.2 WNW 28 41 995.7 - 5.0 - - - - - - -
02/10:30am 7.2 WNW 22 29 995.4 - 4.0 - - - - - - -
02/10:15am 6.8 WNW 28 37 995.5 - 3.6 - - - - - - -
02/10:00am 6.7 W 33 44 995.5 - 2.6 Rain - - - - - -
02/09:58am 6.6 W 33 44 995.3 - 2.6 - - - - - - -
02/09:30am 7.7 WNW 38 49 995.4 - 1.8 - - - - - - -
02/09:01am 9.8 NW 37 47 995.0 - 0.0 - - - - - - -
02/09:00am 9.8 NW 38 47 995.1 - 8.6 Recent precip. - - - - - -
02/08:30am 8.5 NW 39 54 995.6 - 8.6 - - - - - - -
02/08:00am 8.8 NW 35 49 996.3 - 7.6 Rain - - - - - -
02/07:36am 9.4 NW 39 49 996.6 - 6.0 - - - - - - -
02/07:30am 9.5 NW 39 47 996.7 - 6.0 - - - - - - -
02/07:08am 9.4 NW 37 56 996.7 - 5.6 - - - - - - -
02/07:03am 9.4 NW 35 45 996.9 - 5.4 - - - - - - -
02/07:00am 9.5 NW 35 44 997.1 - 5.4 Recent precip. - - - - - -
02/06:30am 9.0 NW 39 52 997.6 - 5.0 - - - - - - -
02/06:00am 9.9 NW 39 49 998.2 - 4.6 Recent precip. - - - - - -
02/05:44am 9.5 NW 38 49 998.4 - 4.6 - - - - - - -
02/05:30am 9.2 NW 38 47 998.5 - 4.6 - - - - - - -
02/05:00am 8.6 NW 37 47 999.0 - 4.2 Rain - - - - - -
02/04:30am 10.0 NW 35 45 999.7 - 3.8 - - - - - - -
02/04:00am 9.2 NW 36 48 1000.3 - 3.8 Recent precip. - - - - - -
02/03:33am 8.7 NW 35 45 1000.8 - 3.8 - - - - - - -
02/03:30am 8.5 NW 36 45 1000.9 - 3.8 - - - - - - -
02/03:00am 8.8 NW 36 43 1001.4 - 3.4 Rain - - - - - -
02/02:42am 9.6 NW 35 45 1001.9 - 3.2 - - - - - - -
02/02:30am 9.5 NW 34 43 1002.2 - 3.0 - - - - - - -
02/02:00am 9.7 NW 35 48 1002.3 - 3.0 - - - - - - -
02/01:30am 8.9 NW 35 47 1003.1 - 3.0 - - - - - - -
02/01:03am 9.1 NW 35 47 1003.5 - 3.0 - - - - - - -
02/01:00am 9.0 NW 35 43 1003.6 - 3.0 Recent precip. - - - - - -
02/12:36am 8.6 NW 33 43 1003.9 - 3.0 - - - - - - -
02/12:30am 8.3 NW 33 40 1004.1 - 3.0 - - - - - - -
02/12:00am 8.7 NW 32 43 1004.3 - 2.4 Recent precip. - - - - - -
 
Date/Time
EST
Temp

°C
Wind Pressure Rain
since 9am
mm
Weather Cloud Vis
km
Sea
Height
m
Swell
Dir
 
Speed
knots
Gust
knots
hPa Trend Height
m
Period
s
Dir
01/11:30pm 8.4 NW 34 44 1004.8 - 2.4 - - - - - - -
01/11:05pm 9.6 NW 33 43 1004.8 - 2.0 - - - - - - -
01/11:00pm 9.7 NW 35 43 1004.9 - 2.0 - - - - - - -
01/10:33pm 9.4 NW 35 45 1005.2 - 2.0 - - - - - - -
01/10:30pm 9.1 NW 36 45 1005.2 - 2.0 - - - - - - -
01/10:10pm 9.4 NW 32 42 1005.4 - 2.0 - - - - - - -
01/10:00pm 8.9 NW 32 39 1005.5 - 2.0 - - - - - - -
01/09:34pm 8.7 NW 32 52 1005.6 - 2.0 - - - - - - -
01/09:30pm 9.2 NW 31 39 1005.6 - 2.0 - - - - - - -
01/09:00pm 7.9 NW 33 43 1006.1 - 2.0 - - - - - - -
01/08:34pm 8.8 NW 28 38 1006.2 - 2.0 - - - - - - -
01/08:30pm 9.1 NW 30 38 1006.2 - 2.0 - - - - - - -
01/08:01pm 8.2 NW 31 41 1006.1 - 2.0 - - - - - - -
01/08:00pm 8.1 NW 32 41 1005.9 - 2.0 Recent precip. - - - - - -
01/07:48pm 9.0 NW 30 44 1006.0 - 1.8 - - - - - - -
01/07:30pm 8.9 NW 30 38 1006.0 - 1.8 - - - - - - -
01/07:16pm 8.9 NW 27 37 1006.0 - 1.8 - - - - - - -
01/07:00pm 8.9 NW 29 37 1005.8 - 1.8 - - - - - - -
01/06:30pm 9.1 NW 28 36 1005.5 - 1.8 - - - - - - -
01/06:00pm 8.7 NW 27 34 1005.4 - 1.8 - - - - - - -
01/05:39pm 8.9 NW 30 41 1005.3 - 1.8 - - - - - - -
01/05:30pm 9.1 NW 28 36 1005.3 - 1.8 - - - - - - -
01/05:00pm 8.4 WNW 25 31 1005.3 - 1.8 - - - - - - -
01/04:30pm 8.9 WNW 29 35 1005.1 - 1.8 - - - - - - -
01/04:00pm 7.5 NW 25 34 1005.2 - 1.8 Rain - - - - - -
01/03:39pm 8.8 WNW 27 40 1005.0 - 1.6 - - - - - - -
01/03:30pm 9.1 WNW 26 32 1005.1 - 1.6 - - - - - - -
01/03:00pm 9.0 WNW 31 37 1004.7 - 1.6 Recent precip. - - - - - -
01/02:38pm 7.7 WNW 26 36 1004.6 - 1.6 - - - - - - -
01/02:30pm 7.0 WNW 32 45 1004.5 - 1.6 - - - - - - -
01/02:26pm 7.1 WNW 36 45 1004.6 - 1.6 - - - - - - -
01/02:21pm 7.3 WNW 33 45 1004.2 - 1.6 - - - - - - -
01/02:03pm 9.7 WNW 29 39 1004.2 - 1.2 - - - - - - -
01/02:00pm 9.5 WNW 29 35 1004.2 - 1.2 - - - - - - -
01/01:31pm 8.7 WNW 31 41 1004.1 - 1.2 - - - - - - -
01/01:30pm 8.3 WNW 32 41 1004.0 - 1.2 - - - - - - -

Other Formats:

Comma delimited format used in spreadsheet applications
http://www.bom.gov.au/fwo/IDT60701/IDT60701.95961.axf

JavaScript Object Notation format (JSON) in row-major order
http://www.bom.gov.au/fwo/IDT60701/IDT60701.95961.json